Time;durP1;ratioP1;P1;durP2;ratioP2;P2;SDS_P1;SDS_P2;PMS_P1;PMS_P2;Temp;Humidity;BMP_temperature;BMP_pressure;BME280_temperature;BME280_humidity;BME280_pressure;Samples;Min_cycle;Max_cycle;Signal;HPM_P1;HPM_P2
2023/07/02 00:01:35;;;;;;;2.30;2.00;;;;;;;;;;5020270;28;20102;-73
2023/07/02 00:04:08;;;;;;;2.30;2.10;;;;;;;;;;4998247;28;20125;-73
2023/07/02 00:06:40;;;;;;;7.40;2.63;;;;;;;;;;5026834;28;20074;-70
2023/07/02 00:09:15;;;;;;;3.45;2.33;;;;;;;;;;5025120;28;20589;-71
2023/07/02 00:11:53;;;;;;;5.05;1.95;;;;;;;;;;5010862;28;20506;-71
2023/07/02 00:14:22;;;;;;;2.65;2.38;;;;;;;;;;5016422;28;22058;-70
2023/07/02 00:16:55;;;;;;;2.67;2.20;;;;;;;;;;5030198;28;20079;-71
2023/07/02 00:19:24;;;;;;;6.30;2.75;;;;;;;;;;5040550;28;20053;-72
2023/07/02 00:21:54;;;;;;;3.70;2.30;;;;;;;;;;5028660;28;20915;-71
2023/07/02 00:24:30;;;;;;;2.83;1.83;;;;;;;;;;4999979;28;20050;-70
2023/07/02 00:27:04;;;;;;;2.47;2.28;;;;;;;;;;5005733;28;20049;-68
2023/07/02 00:29:38;;;;;;;2.00;1.90;;;;;;;;;;5007096;28;20129;-69
2023/07/02 00:32:07;;;;;;;3.67;2.17;;;;;;;;;;5008143;28;20077;-69
2023/07/02 00:34:33;;;;;;;2.42;1.80;;;;;;;;;;5006051;28;20049;-69
2023/07/02 00:37:00;;;;;;;1.77;1.67;;;;;;;;;;4998323;28;20215;-69
2023/07/02 00:39:38;;;;;;;3.80;2.05;;;;;;;;;;4956280;28;20057;-69
2023/07/02 00:42:31;;;;;;;1.95;1.80;;;;;;;;;;4954841;28;20058;-69
2023/07/02 00:45:03;;;;;;;3.60;2.28;;;;;;;;;;4963990;28;20050;-69
2023/07/02 00:47:34;;;;;;;2.10;1.90;;;;;;;;;;4920048;28;20046;-69
2023/07/02 00:50:09;;;;;;;1.80;1.70;;;;;;;;;;4980538;28;20057;-69
2023/07/02 00:52:42;;;;;;;3.05;1.85;;;;;;;;;;4970518;28;20041;-69
2023/07/02 00:55:17;;;;;;;2.22;2.00;;;;;;;;;;4962164;28;20065;-69
2023/07/02 00:57:46;;;;;;;2.17;1.88;;;;;;;;;;4948956;28;20057;-69
2023/07/02 01:00:25;;;;;;;2.17;1.98;;;;;;;;;;4933183;28;20051;-69
2023/07/02 01:03:04;;;;;;;2.08;1.58;;;;;;;;;;4924755;28;20099;-70
2023/07/02 01:05:35;;;;;;;1.95;1.75;;;;;;;;;;4962289;28;20047;-69
2023/07/02 01:08:16;;;;;;;2.38;1.70;;;;;;;;;;4959054;28;20592;-70
2023/07/02 01:10:53;;;;;;;6.10;1.70;;;;;;;;;;4945413;28;20635;-69
2023/07/02 01:16:04;;;;;;;;;;;;;;;;;;4948817;28;20042;-69
2023/07/02 01:18:41;;;;;;;1.60;1.50;;;;;;;;;;4930865;28;19937;-70
2023/07/02 01:21:16;;;;;;;3.75;1.75;;;;;;;;;;4921897;28;20095;-70
2023/07/02 01:23:44;;;;;;;;;;;;;;;;;;4922669;28;20544;-69
2023/07/02 01:26:18;;;;;;;2.25;1.90;;;;;;;;;;4912091;28;20584;-69
2023/07/02 01:29:19;;;;;;;3.15;1.80;;;;;;;;;;4936261;28;20529;-69
2023/07/02 01:32:00;;;;;;;2.20;2.00;;;;;;;;;;4879266;28;20050;-69
2023/07/02 01:34:28;;;;;;;1.70;1.60;;;;;;;;;;4940803;28;20062;-70
2023/07/02 01:36:54;;;;;;;3.05;2.00;;;;;;;;;;4954574;28;20045;-70
2023/07/02 01:39:34;;;;;;;2.15;2.00;;;;;;;;;;4944219;28;20089;-70
2023/07/02 01:42:21;;;;;;;1.92;1.70;;;;;;;;;;4980901;28;20060;-70
2023/07/02 01:44:55;;;;;;;2.88;1.90;;;;;;;;;;5024070;28;20052;-70
2023/07/02 01:47:27;;;;;;;2.38;1.60;;;;;;;;;;5019918;28;20036;-70
2023/07/02 01:50:06;;;;;;;2.15;1.88;;;;;;;;;;5014589;28;20052;-71
2023/07/02 01:52:36;;;;;;;2.03;1.75;;;;;;;;;;5016340;28;20332;-71
2023/07/02 01:55:04;;;;;;;2.05;1.75;;;;;;;;;;5002879;28;20049;-72
2023/07/02 01:57:45;;;;;;;1.77;1.65;;;;;;;;;;4972638;28;20049;-71
2023/07/02 02:00:20;;;;;;;3.17;2.20;;;;;;;;;;4979315;28;20053;-71
2023/07/02 02:03:07;;;;;;;2.65;1.75;;;;;;;;;;5000303;28;20514;-71
2023/07/02 02:05:35;;;;;;;1.55;1.45;;;;;;;;;;4946832;28;20124;-71
2023/07/02 02:08:07;;;;;;;1.50;1.40;;;;;;;;;;4956309;28;20385;-71
2023/07/02 02:10:36;;;;;;;1.48;1.38;;;;;;;;;;4955229;28;20505;-71
2023/07/02 02:13:18;;;;;;;2.67;1.20;;;;;;;;;;4949438;28;20104;-71
2023/07/02 02:15:49;;;;;;;3.72;1.40;;;;;;;;;;4973681;28;20057;-71
2023/07/02 02:18:20;;;;;;;1.33;1.23;;;;;;;;;;4972848;28;20948;-71
2023/07/02 02:20:49;;;;;;;1.45;1.10;;;;;;;;;;4971241;28;20050;-70
2023/07/02 02:23:19;;;;;;;1.80;1.40;;;;;;;;;;4943606;28;20416;-70
2023/07/02 02:25:48;;;;;;;1.30;1.20;;;;;;;;;;4958273;28;20058;-69
2023/07/02 02:28:21;;;;;;;1.48;1.38;;;;;;;;;;4955699;28;20051;-69
2023/07/02 02:30:55;;;;;;;1.40;1.30;;;;;;;;;;4953717;28;20077;-69
2023/07/02 02:33:29;;;;;;;2.38;1.10;;;;;;;;;;4928603;28;20082;-70
2023/07/02 02:35:59;;;;;;;1.30;1.20;;;;;;;;;;4908873;29;20044;-69
2023/07/02 02:38:37;;;;;;;2.03;1.20;;;;;;;;;;4921646;28;20106;-70
2023/07/02 02:41:12;;;;;;;2.88;1.27;;;;;;;;;;4936954;28;20078;-70
2023/07/02 02:43:42;;;;;;;1.65;1.20;;;;;;;;;;4923032;28;20065;-70
2023/07/02 02:46:22;;;;;;;1.42;1.00;;;;;;;;;;4893592;29;20052;-70
2023/07/02 02:48:54;;;;;;;2.17;1.17;;;;;;;;;;4866719;29;20055;-70
2023/07/02 02:51:23;;;;;;;1.98;1.25;;;;;;;;;;4859245;29;20049;-71
2023/07/02 02:54:04;;;;;;;1.40;1.20;;;;;;;;;;4856708;29;20064;-69
2023/07/02 02:56:30;;;;;;;4.28;1.30;;;;;;;;;;4893143;29;20044;-69
2023/07/02 02:59:21;;;;;;;2.20;1.23;;;;;;;;;;4908645;29;20671;-69
2023/07/02 03:02:08;;;;;;;5.43;1.17;;;;;;;;;;4883812;29;20078;-71
2023/07/02 03:04:44;;;;;;;6.43;1.20;;;;;;;;;;4892252;29;20100;-71
2023/07/02 03:07:31;;;;;;;1.00;0.95;;;;;;;;;;4885834;29;20819;-71
2023/07/02 03:10:19;;;;;;;2.13;1.10;;;;;;;;;;4843542;29;20689;-72
2023/07/02 03:12:44;;;;;;;1.92;1.38;;;;;;;;;;4862111;29;20055;-72
2023/07/02 03:15:19;;;;;;;1.40;1.30;;;;;;;;;;4861893;29;20048;-72
2023/07/02 03:17:50;;;;;;;1.30;1.20;;;;;;;;;;4877017;29;20053;-72
2023/07/02 03:20:39;;;;;;;1.40;1.30;;;;;;;;;;4879015;29;20178;-72
2023/07/02 03:23:08;;;;;;;2.40;1.17;;;;;;;;;;4920682;28;20058;-72
2023/07/02 03:25:39;;;;;;;1.33;1.23;;;;;;;;;;4905901;28;20070;-72
2023/07/02 03:28:08;;;;;;;5.00;1.20;;;;;;;;;;4906847;28;20102;-72
2023/07/02 03:30:45;;;;;;;1.83;1.10;;;;;;;;;;4913358;28;20458;-72
2023/07/02 03:33:28;;;;;;;2.63;1.10;;;;;;;;;;4909653;28;21191;-72
2023/07/02 03:35:54;;;;;;;1.25;1.15;;;;;;;;;;4905456;29;20047;-72
2023/07/02 03:38:33;;;;;;;2.53;1.00;;;;;;;;;;4892316;28;20120;-71
2023/07/02 03:40:58;;;;;;;1.40;1.30;;;;;;;;;;4877479;29;20135;-70
2023/07/02 03:43:30;;;;;;;1.73;1.63;;;;;;;;;;4867680;28;20112;-70
2023/07/02 03:45:59;;;;;;;;;;;;;;;;;;4878236;29;20165;-70
2023/07/02 03:48:36;;;;;;;1.55;1.30;;;;;;;;;;4855593;29;21078;-70
2023/07/02 03:51:06;;;;;;;1.63;1.45;;;;;;;;;;4885883;29;20111;-70
2023/07/02 03:53:39;;;;;;;1.33;1.20;;;;;;;;;;4890675;29;20683;-70
2023/07/02 03:56:10;;;;;;;2.08;1.45;;;;;;;;;;4888020;29;20055;-70
2023/07/02 03:58:42;;;;;;;2.95;1.48;;;;;;;;;;4892416;29;20049;-69
2023/07/02 04:01:16;;;;;;;1.90;1.02;;;;;;;;;;4895636;29;20044;-68
2023/07/02 04:03:55;;;;;;;2.72;1.73;;;;;;;;;;4876354;29;21125;-70
2023/07/02 04:06:30;;;;;;;3.22;1.48;;;;;;;;;;4879355;29;20052;-70
2023/07/02 04:09:06;;;;;;;3.90;1.90;;;;;;;;;;4892504;29;20035;-71
2023/07/02 04:11:58;;;;;;;4.88;1.70;;;;;;;;;;4924377;28;20070;-70
2023/07/02 04:14:37;;;;;;;3.25;1.52;;;;;;;;;;4928726;28;20576;-70
2023/07/02 04:17:07;;;;;;;2.17;1.40;;;;;;;;;;4942022;28;20058;-70
2023/07/02 04:19:50;;;;;;;5.78;2.33;;;;;;;;;;4941281;28;20043;-70
2023/07/02 04:22:42;;;;;;;2.17;1.83;;;;;;;;;;4944785;28;20066;-70
2023/07/02 04:25:27;;;;;;;3.00;1.70;;;;;;;;;;4948475;28;21069;-68
2023/07/02 04:28:00;;;;;;;5.47;2.08;;;;;;;;;;4940023;28;20153;-70
2023/07/02 04:30:28;;;;;;;1.98;1.77;;;;;;;;;;4947031;28;20496;-73
2023/07/02 04:33:35;;;;;;;3.20;1.77;;;;;;;;;;4962907;28;20840;-73
2023/07/02 04:36:05;;;;;;;2.88;2.10;;;;;;;;;;4958566;28;20047;-72
2023/07/02 04:38:45;;;;;;;2.92;1.75;;;;;;;;;;4947981;28;20055;-69
2023/07/02 04:41:54;;;;;;;1.98;1.70;;;;;;;;;;4989760;28;20073;-70
2023/07/02 04:44:31;;;;;;;2.78;1.80;;;;;;;;;;4951249;28;20272;-70
2023/07/02 04:47:06;;;;;;;5.18;2.30;;;;;;;;;;4972094;28;20045;-69
2023/07/02 04:49:44;;;;;;;2.00;1.80;;;;;;;;;;4977215;28;20272;-68
2023/07/02 04:52:12;;;;;;;2.85;1.90;;;;;;;;;;4952572;28;20437;-68
2023/07/02 04:55:01;;;;;;;3.90;1.80;;;;;;;;;;4945773;28;20058;-68
2023/07/02 04:57:35;;;;;;;2.15;1.83;;;;;;;;;;4957786;28;20122;-68
2023/07/02 05:00:14;;;;;;;1.67;1.55;;;;;;;;;;4946125;28;20050;-69
2023/07/02 05:02:58;;;;;;;4.50;1.90;;;;;;;;;;4951799;28;20068;-69
2023/07/02 05:05:31;;;;;;;2.78;2.00;;;;;;;;;;4951280;28;20046;-69
2023/07/02 05:08:10;;;;;;;2.03;1.77;;;;;;;;;;4942494;28;20931;-68
2023/07/02 05:10:43;;;;;;;2.67;1.80;;;;;;;;;;4942349;28;20046;-68
2023/07/02 05:13:38;;;;;;;2.22;1.90;;;;;;;;;;4961280;28;20188;-69
2023/07/02 05:16:10;;;;;;;1.70;1.60;;;;;;;;;;4926484;28;20058;-70
2023/07/02 05:18:44;;;;;;;2.03;1.60;;;;;;;;;;4951955;28;20042;-69
2023/07/02 05:21:27;;;;;;;2.53;1.75;;;;;;;;;;4977959;28;20042;-69
2023/07/02 05:23:59;;;;;;;2.83;1.83;;;;;;;;;;5003085;28;20042;-70
2023/07/02 05:26:30;;;;;;;4.18;2.10;;;;;;;;;;4982056;28;20120;-68
2023/07/02 05:28:59;;;;;;;3.53;1.90;;;;;;;;;;5004897;28;20080;-68
2023/07/02 05:31:27;;;;;;;3.05;1.80;;;;;;;;;;4994872;28;20282;-68
2023/07/02 05:34:00;;;;;;;2.55;1.73;;;;;;;;;;4991993;28;20050;-71
2023/07/02 05:36:34;;;;;;;1.70;1.55;;;;;;;;;;4985426;28;20073;-70
2023/07/02 05:39:12;;;;;;;1.65;1.48;;;;;;;;;;4990514;28;20117;-69
2023/07/02 05:41:49;;;;;;;4.85;1.67;;;;;;;;;;4962938;28;20416;-70
2023/07/02 05:44:31;;;;;;;2.88;1.98;;;;;;;;;;4975317;28;20090;-70
2023/07/02 05:47:28;;;;;;;4.28;2.40;;;;;;;;;;4965792;28;20463;-70
2023/07/02 05:49:58;;;;;;;1.65;1.55;;;;;;;;;;4971367;28;20539;-70
2023/07/02 05:52:29;;;;;;;1.85;1.75;;;;;;;;;;4968531;28;20053;-70
2023/07/02 05:55:01;;;;;;;3.08;1.60;;;;;;;;;;4985181;28;20041;-71
2023/07/02 05:57:29;;;;;;;3.40;2.10;;;;;;;;;;4961464;28;20049;-70
2023/07/02 06:00:11;;;;;;;2.10;1.90;;;;;;;;;;4981437;28;20465;-69
2023/07/02 06:02:42;;;;;;;3.47;1.83;;;;;;;;;;4990668;28;20042;-68
2023/07/02 06:05:28;;;;;;;2.25;1.90;;;;;;;;;;4981876;28;20042;-68
2023/07/02 06:08:08;;;;;;;1.63;1.50;;;;;;;;;;4949329;28;20061;-70
2023/07/02 06:10:43;;;;;;;3.00;1.83;;;;;;;;;;4992071;28;20121;-70
2023/07/02 06:13:09;;;;;;;1.77;1.60;;;;;;;;;;4993953;28;20046;-70
2023/07/02 06:15:57;;;;;;;3.53;2.00;;;;;;;;;;4973938;28;20061;-71
2023/07/02 06:18:29;;;;;;;2.38;1.70;;;;;;;;;;4980835;28;20084;-69
2023/07/02 06:21:04;;;;;;;3.00;1.92;;;;;;;;;;4966974;28;20160;-71
2023/07/02 06:23:51;;;;;;;2.63;1.92;;;;;;;;;;4968280;28;20061;-70
2023/07/02 06:26:18;;;;;;;2.25;1.73;;;;;;;;;;4965572;28;20196;-69
2023/07/02 06:28:57;;;;;;;4.15;1.88;;;;;;;;;;4961134;28;20049;-71
2023/07/02 06:31:22;;;;;;;3.05;1.95;;;;;;;;;;4936337;28;20619;-72
2023/07/02 06:34:01;;;;;;;2.53;2.05;;;;;;;;;;4927227;28;20055;-71
2023/07/02 06:36:49;;;;;;;2.25;2.05;;;;;;;;;;4921584;28;20492;-71
2023/07/02 06:39:34;;;;;;;2.25;1.95;;;;;;;;;;4920167;28;20296;-71
2023/07/02 06:42:12;;;;;;;4.07;2.15;;;;;;;;;;4906077;28;20044;-72
2023/07/02 06:44:49;;;;;;;2.25;1.85;;;;;;;;;;4904088;28;20043;-75
2023/07/02 06:47:28;;;;;;;6.53;2.20;;;;;;;;;;4883696;28;20064;-74
2023/07/02 06:49:54;;;;;;;3.60;2.33;;;;;;;;;;4985175;28;20048;-74
2023/07/02 06:52:27;;;;;;;2.25;1.92;;;;;;;;;;5028254;28;20075;-73
2023/07/02 06:55:06;;;;;;;2.28;1.67;;;;;;;;;;5000013;28;20112;-73
2023/07/02 06:57:31;;;;;;;3.92;2.20;;;;;;;;;;5000478;28;20119;-74
2023/07/02 07:00:09;;;;;;;2.28;1.85;;;;;;;;;;5004266;28;20068;-75
2023/07/02 07:02:40;;;;;;;2.63;2.35;;;;;;;;;;5024570;28;20073;-74
2023/07/02 07:05:09;;;;;;;3.60;2.03;;;;;;;;;;4990885;28;20161;-74
2023/07/02 07:07:38;;;;;;;3.90;2.17;;;;;;;;;;5002450;28;20639;-76
2023/07/02 07:10:07;;;;;;;;;;;;;;;;;;5003633;28;20037;-75
2023/07/02 07:12:39;;;;;;;2.33;2.03;;;;;;;;;;5009243;28;19925;-76
2023/07/02 07:15:06;;;;;;;3.78;2.13;;;;;;;;;;5013496;28;20572;-75
2023/07/02 07:17:35;;;;;;;3.63;2.30;;;;;;;;;;4988298;28;20049;-73
2023/07/02 07:20:03;;;;;;;3.10;2.33;;;;;;;;;;4982414;28;20049;-73
2023/07/02 07:23:03;;;;;;;2.65;1.70;;;;;;;;;;4997141;28;20044;-72
2023/07/02 07:25:34;;;;;;;2.65;2.20;;;;;;;;;;5000513;28;20046;-72
2023/07/02 07:28:01;;;;;;;7.28;2.00;;;;;;;;;;4996141;28;20069;-72
2023/07/02 07:30:51;;;;;;;2.33;2.03;;;;;;;;;;5013755;28;20052;-72
2023/07/02 07:33:30;;;;;;;2.63;2.35;;;;;;;;;;4998375;28;20510;-72
2023/07/02 07:36:19;;;;;;;3.38;2.20;;;;;;;;;;5008547;28;20050;-72
2023/07/02 07:38:58;;;;;;;3.95;2.00;;;;;;;;;;5011469;28;20068;-72
2023/07/02 07:41:37;;;;;;;;;;;;;;;;;;4984717;28;20056;-71
2023/07/02 07:44:17;;;;;;;5.68;2.08;;;;;;;;;;4959099;28;19929;-71
2023/07/02 07:46:59;;;;;;;2.53;2.33;;;;;;;;;;4947824;28;20050;-73
2023/07/02 07:49:54;;;;;;;2.33;1.90;;;;;;;;;;4922660;28;20043;-73
2023/07/02 07:52:23;;;;;;;2.72;2.15;;;;;;;;;;4954418;28;20503;-72
2023/07/02 07:54:48;;;;;;;3.15;2.22;;;;;;;;;;4981375;28;20132;-72
2023/07/02 07:57:14;;;;;;;4.03;2.30;;;;;;;;;;4985957;28;20138;-71
2023/07/02 07:59:40;;;;;;;5.80;2.13;;;;;;;;;;4988070;28;20049;-72
2023/07/02 08:02:05;;;;;;;3.15;2.28;;;;;;;;;;4987305;28;20129;-73
2023/07/02 08:04:31;;;;;;;3.40;2.35;;;;;;;;;;4947233;28;20304;-71
2023/07/02 08:06:57;;;;;;;4.57;2.10;;;;;;;;;;4973330;28;21144;-70
2023/07/02 08:09:23;;;;;;;2.53;2.30;;;;;;;;;;4988103;28;20624;-71
2023/07/02 08:11:49;;;;;;;4.80;2.47;;;;;;;;;;4968429;28;20058;-72
2023/07/02 08:14:16;;;;;;;2.47;1.95;;;;;;;;;;4970554;28;20054;-73
2023/07/02 08:16:41;;;;;;;3.08;1.98;;;;;;;;;;4973766;28;20046;-72
2023/07/02 08:19:10;;;;;;;2.20;2.00;;;;;;;;;;4991096;28;20162;-74
2023/07/02 08:21:35;;;;;;;2.15;1.80;;;;;;;;;;4971020;28;20046;-72
2023/07/02 08:24:01;;;;;;;1.88;1.77;;;;;;;;;;4996257;28;20134;-72
2023/07/02 08:26:26;;;;;;;2.17;1.98;;;;;;;;;;5029831;28;20124;-72
2023/07/02 08:28:52;;;;;;;2.35;1.90;;;;;;;;;;5027195;28;20498;-73
2023/07/02 08:31:17;;;;;;;1.75;1.63;;;;;;;;;;5029544;28;20088;-76
2023/07/02 08:33:42;;;;;;;2.10;1.75;;;;;;;;;;5022040;28;20066;-73
2023/07/02 08:36:08;;;;;;;2.00;1.80;;;;;;;;;;5006069;28;20049;-72
2023/07/02 08:38:33;;;;;;;1.63;1.52;;;;;;;;;;5021900;28;20057;-72
2023/07/02 08:40:59;;;;;;;1.95;1.65;;;;;;;;;;5031082;28;20045;-72
2023/07/02 08:43:26;;;;;;;2.60;1.40;;;;;;;;;;5028821;28;20525;-72
2023/07/02 08:45:53;;;;;;;2.25;1.60;;;;;;;;;;5027173;28;20405;-73
2023/07/02 08:48:22;;;;;;;2.92;1.50;;;;;;;;;;5027118;28;20059;-73
2023/07/02 08:50:49;;;;;;;3.38;1.48;;;;;;;;;;5024438;28;20060;-74
2023/07/02 08:53:15;;;;;;;1.52;1.40;;;;;;;;;;5022937;28;20094;-74
2023/07/02 08:55:41;;;;;;;2.17;1.58;;;;;;;;;;5024072;28;20049;-74
2023/07/02 08:58:07;;;;;;;2.10;1.30;;;;;;;;;;5025793;28;20049;-73
2023/07/02 09:00:36;;;;;;;2.85;1.20;;;;;;;;;;5021076;28;20045;-72
2023/07/02 09:03:18;;;;;;;3.58;1.70;;;;;;;;;;5018249;28;20056;-71
2023/07/02 09:05:53;;;;;;;;;;;;;;;;;;5030114;28;20064;-72
2023/07/02 09:08:25;;;;;;;2.75;1.70;;;;;;;;;;5021282;28;19931;-72
2023/07/02 09:10:51;;;;;;;1.60;1.50;;;;;;;;;;5022229;28;20045;-72
2023/07/02 09:13:16;;;;;;;1.48;1.38;;;;;;;;;;5026601;28;20064;-72
2023/07/02 09:15:42;;;;;;;1.63;1.52;;;;;;;;;;5016716;28;20049;-70
2023/07/02 09:18:21;;;;;;;1.92;1.50;;;;;;;;;;5037274;28;20045;-72
2023/07/02 09:20:51;;;;;;;2.05;1.52;;;;;;;;;;5027632;28;20041;-72
2023/07/02 09:23:16;;;;;;;2.38;2.10;;;;;;;;;;5028610;28;20048;-74
2023/07/02 09:25:42;;;;;;;1.55;1.45;;;;;;;;;;5024928;28;20067;-73
2023/07/02 09:28:17;;;;;;;5.63;1.48;;;;;;;;;;5022226;28;20049;-73
2023/07/02 09:30:56;;;;;;;2.17;1.55;;;;;;;;;;5022870;28;20051;-74
2023/07/02 09:33:28;;;;;;;1.60;1.25;;;;;;;;;;5019588;28;20388;-75
2023/07/02 09:35:54;;;;;;;2.20;2.00;;;;;;;;;;5026098;28;20055;-75
2023/07/02 09:38:20;;;;;;;2.03;1.77;;;;;;;;;;5005385;28;20111;-74
2023/07/02 09:40:48;;;;;;;2.33;1.98;;;;;;;;;;5038383;28;20049;-74
2023/07/02 09:43:18;;;;;;;4.18;3.13;;;;;;;;;;5031456;28;20485;-72
2023/07/02 09:45:46;;;;;;;2.33;1.80;;;;;;;;;;5023086;28;20052;-73
2023/07/02 09:48:14;;;;;;;2.72;2.03;;;;;;;;;;5023716;28;20041;-73
2023/07/02 09:50:44;;;;;;;2.85;1.70;;;;;;;;;;5008536;28;20037;-74
2023/07/02 09:53:10;;;;;;;1.75;1.65;;;;;;;;;;5020093;28;20037;-73
2023/07/02 09:55:41;;;;;;;1.60;1.50;;;;;;;;;;5022653;28;20037;-73
2023/07/02 09:58:07;;;;;;;1.92;1.70;;;;;;;;;;5004721;28;20099;-74
2023/07/02 10:00:33;;;;;;;2.70;1.42;;;;;;;;;;5022400;28;20033;-74
2023/07/02 10:03:00;;;;;;;2.55;1.70;;;;;;;;;;5021736;28;20049;-73
2023/07/02 10:05:31;;;;;;;1.52;1.40;;;;;;;;;;5023493;28;20509;-73
2023/07/02 10:07:58;;;;;;;1.80;1.50;;;;;;;;;;5010696;28;20053;-74
2023/07/02 10:10:28;;;;;;;1.40;1.30;;;;;;;;;;5004405;28;20056;-77
2023/07/02 10:12:54;;;;;;;1.20;1.10;;;;;;;;;;5021433;28;20052;-77
2023/07/02 10:15:31;;;;;;;1.50;1.30;;;;;;;;;;5021822;28;20057;-76
2023/07/02 10:18:02;;;;;;;1.77;1.58;;;;;;;;;;5021784;28;20107;-75
2023/07/02 10:20:41;;;;;;;3.65;1.98;;;;;;;;;;5024824;28;20099;-75
2023/07/02 10:23:08;;;;;;;3.75;2.00;;;;;;;;;;5038283;28;20045;-75
2023/07/02 10:25:38;;;;;;;3.40;2.28;;;;;;;;;;5022760;28;20076;-76
2023/07/02 10:28:26;;;;;;;2.55;2.05;;;;;;;;;;5005593;28;20057;-75
2023/07/02 10:30:53;;;;;;;4.15;2.60;;;;;;;;;;5021633;28;20060;-75
2023/07/02 10:33:19;;;;;;;2.85;2.30;;;;;;;;;;5020715;28;20046;-75
2023/07/02 10:35:49;;;;;;;2.78;2.17;;;;;;;;;;5020619;28;20057;-73
2023/07/02 10:38:22;;;;;;;2.92;1.90;;;;;;;;;;5020711;28;20636;-72
2023/07/02 10:41:00;;;;;;;3.13;2.10;;;;;;;;;;5020250;28;20091;-73
2023/07/02 10:43:30;;;;;;;3.45;2.10;;;;;;;;;;5002867;28;20474;-73
2023/07/02 10:45:56;;;;;;;4.18;2.88;;;;;;;;;;5021354;28;20043;-73
2023/07/02 10:48:21;;;;;;;5.15;2.10;;;;;;;;;;5020243;28;20048;-73
2023/07/02 10:50:47;;;;;;;3.22;2.58;;;;;;;;;;5027528;28;20084;-73
2023/07/02 10:53:16;;;;;;;4.00;2.58;;;;;;;;;;5021898;28;20044;-74
2023/07/02 10:55:42;;;;;;;4.95;2.85;;;;;;;;;;5019244;28;20064;-74
2023/07/02 10:58:09;;;;;;;4.50;2.72;;;;;;;;;;5020923;28;20510;-73
2023/07/02 11:00:49;;;;;;;5.50;3.00;;;;;;;;;;5020621;28;20584;-73
2023/07/02 11:03:20;;;;;;;4.43;2.70;;;;;;;;;;5021690;28;20664;-73
2023/07/02 11:05:46;;;;;;;5.90;2.80;;;;;;;;;;5020383;28;20128;-73
2023/07/02 11:08:12;;;;;;;5.00;3.30;;;;;;;;;;4984854;28;1056225;-73
2023/07/02 11:10:38;;;;;;;4.72;3.22;;;;;;;;;;5035252;28;20045;-73
2023/07/02 11:13:13;;;;;;;6.40;3.63;;;;;;;;;;5022111;28;20503;-73
2023/07/02 11:15:41;;;;;;;6.13;4.00;;;;;;;;;;5018306;28;20088;-73
2023/07/02 11:18:17;;;;;;;4.93;3.53;;;;;;;;;;5021347;28;20184;-73
2023/07/02 11:20:45;;;;;;;8.68;3.97;;;;;;;;;;5024767;28;20485;-73
2023/07/02 11:23:24;;;;;;;5.63;3.70;;;;;;;;;;5024649;28;20119;-73
2023/07/02 11:25:57;;;;;;;6.55;3.75;;;;;;;;;;5034936;28;20096;-73
2023/07/02 11:28:23;;;;;;;8.52;4.22;;;;;;;;;;5019493;28;20049;-73
2023/07/02 11:30:48;;;;;;;6.35;3.55;;;;;;;;;;5021086;28;20422;-73
2023/07/02 11:33:14;;;;;;;4.90;3.65;;;;;;;;;;5022038;28;20494;-73
2023/07/02 11:35:39;;;;;;;6.47;3.88;;;;;;;;;;5019182;28;20049;-73
2023/07/02 11:38:04;;;;;;;7.80;3.70;;;;;;;;;;5011058;28;20048;-73
2023/07/02 11:40:30;;;;;;;6.15;3.80;;;;;;;;;;5021179;28;20103;-73
2023/07/02 11:42:56;;;;;;;8.60;3.90;;;;;;;;;;5021766;28;20056;-74
2023/07/02 11:45:21;;;;;;;5.20;3.80;;;;;;;;;;5033944;28;20168;-75
2023/07/02 11:47:47;;;;;;;7.10;3.70;;;;;;;;;;5003066;28;20041;-74
2023/07/02 11:50:13;;;;;;;4.95;3.47;;;;;;;;;;5021070;28;20049;-74
2023/07/02 11:52:38;;;;;;;6.70;3.85;;;;;;;;;;5018984;28;20978;-73
2023/07/02 11:55:04;;;;;;;5.60;3.50;;;;;;;;;;5020279;28;20045;-75
2023/07/02 11:57:30;;;;;;;6.47;3.55;;;;;;;;;;5026334;28;20052;-75
2023/07/02 11:59:55;;;;;;;5.43;3.50;;;;;;;;;;5020720;28;20807;-76
2023/07/02 12:02:21;;;;;;;7.10;3.97;;;;;;;;;;5036793;28;20053;-76
2023/07/02 12:04:46;;;;;;;5.35;3.63;;;;;;;;;;5024874;28;20037;-76
2023/07/02 12:07:13;;;;;;;6.50;4.10;;;;;;;;;;5035490;28;20068;-76
2023/07/02 12:09:38;;;;;;;5.13;3.80;;;;;;;;;;5002466;28;20057;-76
2023/07/02 12:12:04;;;;;;;4.53;3.45;;;;;;;;;;5020776;28;20053;-74
2023/07/02 12:14:30;;;;;;;10.25;4.82;;;;;;;;;;5019804;28;20065;-74
2023/07/02 12:16:55;;;;;;;5.15;3.70;;;;;;;;;;5019770;28;20037;-74
2023/07/02 12:19:20;;;;;;;4.88;4.20;;;;;;;;;;5018378;28;20392;-74
2023/07/02 12:21:46;;;;;;;5.70;4.22;;;;;;;;;;5020582;28;20049;-74
2023/07/02 12:24:11;;;;;;;6.78;4.57;;;;;;;;;;5035798;28;20049;-74
2023/07/02 12:26:37;;;;;;;5.75;4.32;;;;;;;;;;5015299;28;20091;-73
2023/07/02 12:29:03;;;;;;;5.85;4.28;;;;;;;;;;5034604;28;20490;-73
2023/07/02 12:31:30;;;;;;;6.63;4.32;;;;;;;;;;5020020;28;20068;-73
2023/07/02 12:33:55;;;;;;;8.18;4.15;;;;;;;;;;5020369;28;20045;-74
2023/07/02 12:36:20;;;;;;;7.13;4.25;;;;;;;;;;5035714;28;20433;-72
2023/07/02 12:38:46;;;;;;;5.45;3.88;;;;;;;;;;5029130;28;20135;-75
2023/07/02 12:41:11;;;;;;;5.95;4.38;;;;;;;;;;5019079;28;20461;-73
2023/07/02 12:43:37;;;;;;;7.55;4.90;;;;;;;;;;5019619;28;20077;-72
2023/07/02 12:46:02;;;;;;;6.53;4.53;;;;;;;;;;5020392;28;20033;-73
2023/07/02 12:48:28;;;;;;;7.13;4.85;;;;;;;;;;5018739;28;20048;-73
2023/07/02 12:50:58;;;;;;;10.23;4.85;;;;;;;;;;5026965;28;20148;-73
2023/07/02 12:53:25;;;;;;;6.47;4.82;;;;;;;;;;4992332;28;20072;-73
2023/07/02 12:55:50;;;;;;;7.78;4.88;;;;;;;;;;5018450;28;20088;-73
2023/07/02 12:58:16;;;;;;;8.38;5.22;;;;;;;;;;5018538;28;20061;-75
2023/07/02 13:00:42;;;;;;;9.80;5.78;;;;;;;;;;5019191;28;20045;-73
2023/07/02 13:03:12;;;;;;;9.13;5.38;;;;;;;;;;5020316;28;20950;-73
2023/07/02 13:05:37;;;;;;;8.40;5.30;;;;;;;;;;5019563;28;20049;-73
2023/07/02 13:08:03;;;;;;;8.88;5.22;;;;;;;;;;5022122;28;20052;-74
2023/07/02 13:10:30;;;;;;;8.85;5.35;;;;;;;;;;5027011;28;20049;-74
2023/07/02 13:12:55;;;;;;;13.63;6.03;;;;;;;;;;5026734;28;20045;-75
2023/07/02 13:15:20;;;;;;;9.65;5.32;;;;;;;;;;5027502;28;20183;-74
2023/07/02 13:17:46;;;;;;;9.57;5.85;;;;;;;;;;5026241;28;20052;-75
2023/07/02 13:20:12;;;;;;;8.82;5.85;;;;;;;;;;5024868;28;20088;-74
2023/07/02 13:22:38;;;;;;;11.05;6.57;;;;;;;;;;5025065;28;20091;-74
2023/07/02 13:25:04;;;;;;;11.85;6.25;;;;;;;;;;5031687;28;20910;-74
2023/07/02 13:27:29;;;;;;;10.38;6.10;;;;;;;;;;5023807;28;20049;-75
2023/07/02 13:29:55;;;;;;;10.07;6.20;;;;;;;;;;5029765;28;20037;-75
2023/07/02 13:32:21;;;;;;;11.80;6.55;;;;;;;;;;5026385;28;20059;-74
2023/07/02 13:34:46;;;;;;;8.73;5.90;;;;;;;;;;5030223;28;20136;-75
2023/07/02 13:37:14;;;;;;;10.32;6.03;;;;;;;;;;5028186;28;20065;-74
2023/07/02 13:39:39;;;;;;;11.48;6.70;;;;;;;;;;5029795;28;20132;-75
2023/07/02 13:42:05;;;;;;;12.50;6.70;;;;;;;;;;5027958;28;20098;-73
2023/07/02 13:44:31;;;;;;;10.05;6.07;;;;;;;;;;5026768;28;20525;-73
2023/07/02 13:46:57;;;;;;;9.55;6.25;;;;;;;;;;5027841;28;20079;-72
2023/07/02 13:49:22;;;;;;;10.32;6.25;;;;;;;;;;5029537;28;20053;-75
2023/07/02 13:51:50;;;;;;;9.30;6.35;;;;;;;;;;5030719;28;20709;-74
2023/07/02 13:54:16;;;;;;;10.70;6.53;;;;;;;;;;5022080;28;20042;-75
2023/07/02 13:56:41;;;;;;;13.55;6.10;;;;;;;;;;5029331;28;20052;-74
2023/07/02 13:59:07;;;;;;;12.55;6.50;;;;;;;;;;5012619;28;20068;-74
2023/07/02 14:01:37;;;;;;;11.75;6.82;;;;;;;;;;5031819;28;20413;-74
2023/07/02 14:04:03;;;;;;;11.90;6.15;;;;;;;;;;5036727;28;20685;-75
2023/07/02 14:06:29;;;;;;;10.68;6.47;;;;;;;;;;5030282;28;20052;-74
2023/07/02 14:08:54;;;;;;;10.00;5.63;;;;;;;;;;5012903;28;20044;-73
2023/07/02 14:11:22;;;;;;;10.65;6.13;;;;;;;;;;5027864;28;20072;-75
2023/07/02 14:13:47;;;;;;;11.35;6.55;;;;;;;;;;5029509;28;20487;-74
2023/07/02 14:16:13;;;;;;;9.98;6.45;;;;;;;;;;5009925;28;20049;-74
2023/07/02 14:18:39;;;;;;;11.02;6.65;;;;;;;;;;5027751;28;20139;-75
2023/07/02 14:21:04;;;;;;;8.15;5.90;;;;;;;;;;5033604;28;20127;-74
2023/07/02 14:23:30;;;;;;;9.63;6.80;;;;;;;;;;5027274;28;20414;-74
2023/07/02 14:25:55;;;;;;;11.85;6.63;;;;;;;;;;5027977;28;20106;-74
2023/07/02 14:28:20;;;;;;;9.88;6.40;;;;;;;;;;5026707;28;20110;-75
2023/07/02 14:30:47;;;;;;;11.27;6.40;;;;;;;;;;5024050;28;20159;-74
2023/07/02 14:33:14;;;;;;;12.07;6.75;;;;;;;;;;5032413;28;20037;-73
2023/07/02 14:35:40;;;;;;;9.23;6.20;;;;;;;;;;5028784;28;20053;-75
2023/07/02 14:38:05;;;;;;;10.00;5.90;;;;;;;;;;5023280;28;20053;-75
2023/07/02 14:40:32;;;;;;;10.73;6.68;;;;;;;;;;5029864;28;20053;-77
2023/07/02 14:42:58;;;;;;;10.88;6.82;;;;;;;;;;5031073;28;20041;-76
2023/07/02 14:45:24;;;;;;;9.50;6.05;;;;;;;;;;5024115;28;20052;-73
2023/07/02 14:47:49;;;;;;;15.57;6.80;;;;;;;;;;5020114;28;20056;-75
2023/07/02 14:50:15;;;;;;;11.60;6.43;;;;;;;;;;5023950;28;20056;-74
2023/07/02 14:52:40;;;;;;;10.90;5.90;;;;;;;;;;5024560;28;20052;-73
2023/07/02 14:55:06;;;;;;;9.57;6.10;;;;;;;;;;5028595;28;20489;-73
2023/07/02 14:57:32;;;;;;;11.88;6.40;;;;;;;;;;5029327;28;20462;-73
2023/07/02 14:59:57;;;;;;;9.85;6.68;;;;;;;;;;5030189;28;20045;-75
2023/07/02 15:02:23;;;;;;;13.18;7.30;;;;;;;;;;5025839;28;20041;-74
2023/07/02 15:04:48;;;;;;;10.82;6.95;;;;;;;;;;5007240;28;20072;-74
2023/07/02 15:07:14;;;;;;;11.98;7.22;;;;;;;;;;5025641;28;20105;-75
2023/07/02 15:09:39;;;;;;;11.23;6.25;;;;;;;;;;5028118;28;20045;-75
2023/07/02 15:12:04;;;;;;;9.77;7.00;;;;;;;;;;5023590;28;20399;-74